Date,TemperatureHighF,TemperatureAvgF,TemperatureLowF,DewpointHighF,DewpointAvgF,DewpointLowF,HumidityHigh,HumidityAvg,HumidityLow,PressureMaxIn,PressureMinIn,WindSpeedMaxMPH,WindSpeedAvgMPH,GustSpeedMaxMPH,PrecipitationSumIn
2013-11-1,40.8,31.3,23.2,20.0,14.0,7.0,83,51,30,30.23,29.93,15,2,21,0.00
2013-11-2,55.8,39.6,23.1,13.0,4.8,-4.0,53,27,9,30.22,29.76,9,1,15,0.00
2013-11-3,49.7,39.3,29.6,24.0,14.8,8.0,78,38,26,29.75,29.38,13,1,22,0.00
2013-11-4,42.5,30.7,24.1,21.0,15.1,9.0,86,56,27,29.78,29.58,11,1,17,0.00
2013-11-5,33.6,23.3,13.7,22.0,8.2,-10.0,90,57,25,30.22,29.72,7,1,17,0.01
2013-11-6,39.0,27.6,13.5,11.0,5.7,-11.0,57,40,28,30.43,30.22,12,2,22,0.00
2013-11-7,50.4,37.3,25.2,16.0,13.1,9.0,57,39,25,30.42,30.00,7,1,17,0.00
2013-11-8,52.9,41.6,34.4,14.0,11.4,7.0,42,30,20,29.99,29.72,17,2,21,0.00
2013-11-9,54.5,40.9,31.1,16.0,12.7,11.0,46,33,19,30.06,29.89,6,0,13,0.00
2013-11-10,54.4,40.9,29.6,15.0,12.2,9.0,50,33,18,30.13,30.02,6,0,12,0.00
2013-11-11,52.9,39.9,29.3,14.0,12.5,9.0,48,34,17,30.30,30.09,4,1,13,0.00
2013-11-12,51.4,34.8,19.0,19.0,12.4,-10.0,85,44,8,30.48,30.29,5,0,7,0.00
2013-11-13,51.4,39.9,27.5,13.0,9.5,3.0,39,30,17,30.38,29.90,9,1,11,0.00
2013-11-14,47.6,37.3,28.2,20.0,11.3,-1.0,67,38,16,29.89,29.66,8,1,13,0.00
2013-11-15,45.0,34.5,27.9,27.0,17.4,9.0,87,53,29,29.65,29.38,15,2,19,0.00
2013-11-16,37.7,29.8,24.7,25.0,19.1,13.0,89,67,38,29.49,29.29,17,1,35,0.03
2013-11-17,39.2,28.9,19.7,21.0,17.1,13.0,88,63,43,30.11,29.50,5,0,17,0.16
2013-11-18,50.3,35.5,23.8,17.0,11.8,6.0,56,39,22,30.21,29.99,5,0,10,0.00
2013-11-19,46.2,35.9,28.3,21.0,17.1,12.0,66,47,33,29.99,29.64,13,1,17,0.00
2013-11-20,44.4,35.2,29.2,27.0,20.1,17.0,85,56,34,29.74,29.64,5,0,13,0.00
2013-11-21,30.3,25.6,13.1,27.0,22.4,9.0,91,87,80,30.32,29.72,11,1,15,0.06
2013-11-22,22.1,17.4,11.5,18.0,13.6,8.0,88,85,78,30.65,30.32,0,0,3,0.00
2013-11-23,25.0,20.4,17.2,18.0,16.2,14.0,89,84,71,30.64,30.39,0,0,3,0.00
2013-11-24,31.8,23.6,12.9,26.0,20.0,9.0,91,86,72,30.38,29.96,5,0,11,0.00
2013-11-25,30.0,23.0,16.9,23.0,14.5,9.0,87,71,54,30.36,29.99,8,1,21,0.00
2013-11-26,33.5,23.5,15.3,19.0,13.8,10.0,85,68,47,30.50,30.36,4,0,7,0.01
2013-11-27,40.1,25.9,12.7,20.0,13.4,7.0,81,61,35,30.38,30.21,2,0,6,0.17
2013-11-28,33.7,25.4,17.6,16.0,13.1,10.0,79,61,45,30.27,30.18,1,0,3,0.04
2013-11-29,41.2,30.7,18.6,16.0,12.7,10.0,69,48,32,30.27,30.17,3,0,11,0.00
2013-11-30,40.5,30.3,23.3,13.0,9.5,6.0,56,43,30,30.22,30.13,2,0,12,0.00